createdAt,value
2018-04-14T01:08:49.220Z,2.00
2018-04-14T01:11:17.395Z,2.90
2018-04-14T01:13:45.565Z,1.77
2018-04-14T01:16:13.765Z,1.90
2018-04-14T01:18:41.949Z,2.10
2018-04-14T01:21:10.117Z,1.77
2018-04-14T01:23:38.289Z,2.00
2018-04-14T01:26:06.475Z,2.43
2018-04-14T01:28:35.421Z,1.60
2018-04-14T01:31:03.601Z,2.10
2018-04-14T01:33:31.772Z,2.00
2018-04-14T01:35:59.940Z,1.97
2018-04-14T01:38:28.107Z,2.20
2018-04-14T01:40:56.301Z,2.70
2018-04-14T01:43:24.501Z,2.50
2018-04-14T01:45:52.682Z,2.27
2018-04-14T01:48:20.853Z,1.70
2018-04-14T01:50:50.525Z,2.00
2018-04-14T01:53:18.701Z,1.60
2018-04-14T01:55:46.874Z,2.50
2018-04-14T01:58:15.054Z,1.90
2018-04-14T02:00:43.225Z,1.70
2018-04-14T02:03:11.390Z,2.03
2018-04-14T02:05:39.585Z,2.10
2018-04-14T02:08:07.746Z,2.03
2018-04-14T02:10:35.929Z,2.20
2018-04-14T02:13:04.876Z,2.10
2018-04-14T02:15:33.834Z,2.30
2018-04-14T02:18:02.004Z,2.10
2018-04-14T02:20:30.167Z,1.90
2018-04-14T02:22:58.330Z,1.97
2018-04-14T02:25:26.535Z,1.93
2018-04-14T02:27:54.710Z,2.20
2018-04-14T02:30:22.890Z,1.67
2018-04-14T02:32:51.056Z,1.97
2018-04-14T02:35:19.229Z,1.70
2018-04-14T02:37:47.411Z,2.27
2018-04-14T02:40:15.618Z,1.67
2018-04-14T02:42:43.785Z,2.03
2018-04-14T02:45:12.709Z,1.93
2018-04-14T02:47:40.889Z,2.17
2018-04-14T02:50:09.059Z,1.90
2018-04-14T02:52:37.236Z,2.00
2018-04-14T02:55:05.393Z,2.17
2018-04-14T02:57:33.575Z,2.03
2018-04-14T03:00:01.730Z,2.43
2018-04-14T03:02:29.908Z,2.13
2018-04-14T03:04:58.069Z,2.10
2018-04-14T03:07:26.997Z,2.00
2018-04-14T03:09:55.159Z,2.50
2018-04-14T03:12:23.365Z,2.77
2018-04-14T03:14:51.532Z,2.60
2018-04-14T03:17:19.693Z,2.33
2018-04-14T03:19:47.850Z,2.00
2018-04-14T03:22:16.021Z,2.23
2018-04-14T03:24:44.197Z,1.90
2018-04-14T03:27:12.356Z,2.00
2018-04-14T03:29:41.322Z,2.30
2018-04-14T03:32:09.498Z,2.13
2018-04-14T03:34:37.672Z,2.60
2018-04-14T03:37:05.850Z,2.03
2018-04-14T03:39:34.014Z,2.23
2018-04-14T03:42:02.177Z,1.90
2018-04-14T03:44:30.347Z,2.20
2018-04-14T03:46:58.507Z,2.20
2018-04-14T03:49:26.679Z,2.30
2018-04-14T03:51:54.841Z,2.67
2018-04-14T03:54:23.005Z,2.27
2018-04-14T03:56:51.941Z,2.00
2018-04-14T03:59:20.105Z,2.30
2018-04-14T04:01:48.273Z,2.23
2018-04-14T04:04:16.437Z,2.43
2018-04-14T04:06:44.612Z,2.30
2018-04-14T04:09:12.774Z,2.30
2018-04-14T04:11:40.954Z,2.20
2018-04-14T04:14:09.123Z,2.10
2018-04-14T04:16:37.322Z,2.63
2018-04-14T04:19:23.573Z,2.60
2018-04-14T04:22:10.246Z,2.40
2018-04-14T04:24:56.162Z,2.87
2018-04-14T04:27:25.099Z,2.80
2018-04-14T04:29:53.264Z,2.37
2018-04-14T04:32:21.440Z,2.60
2018-04-14T04:34:49.605Z,2.27
2018-04-14T04:37:18.549Z,2.70
2018-04-14T04:39:46.722Z,2.43
2018-04-14T04:42:14.894Z,2.77
2018-04-14T04:44:43.093Z,2.40
2018-04-14T04:47:11.266Z,2.27
2018-04-14T04:49:39.433Z,2.77
2018-04-14T04:52:07.615Z,3.33
2018-04-14T04:54:35.791Z,2.87
2018-04-14T04:57:03.953Z,3.40
2018-04-14T04:59:32.140Z,2.77
2018-04-14T05:02:00.313Z,3.00
2018-04-14T05:04:28.489Z,4.07
2018-04-14T05:06:57.422Z,3.47
2018-04-14T05:09:25.582Z,3.70
2018-04-14T05:11:53.760Z,3.53
2018-04-14T05:14:21.929Z,3.47
2018-04-14T05:16:50.867Z,3.83
2018-04-14T05:19:19.806Z,4.37
2018-04-14T05:21:48.741Z,3.93
2018-04-14T05:24:16.939Z,4.60
2018-04-14T05:26:45.121Z,4.50
2018-04-14T05:29:13.302Z,3.97
2018-04-14T05:31:41.511Z,4.30
2018-04-14T05:34:09.682Z,3.97
2018-04-14T05:36:38.611Z,4.20
2018-04-14T05:39:06.804Z,4.50
2018-04-14T05:41:34.968Z,5.13
2018-04-14T05:44:03.149Z,4.23
2018-04-14T05:46:31.313Z,3.50
2018-04-14T05:48:59.474Z,4.33
2018-04-14T05:51:27.677Z,3.83
2018-04-14T05:53:55.841Z,4.53
2018-04-14T05:56:24.038Z,4.67
2018-04-14T05:58:53.057Z,4.50
2018-04-14T06:01:21.985Z,7.40
2018-04-14T06:03:50.170Z,4.47
2018-04-14T06:06:18.616Z,4.33
2018-04-14T06:08:46.786Z,4.47
2018-04-14T06:11:14.965Z,3.87
2018-04-14T06:13:43.141Z,3.50
2018-04-14T06:16:11.309Z,2.87
2018-04-14T06:18:39.483Z,3.27
2018-04-14T06:21:08.416Z,3.40
2018-04-14T06:23:36.607Z,3.20
2018-04-14T06:26:04.784Z,3.20
2018-04-14T06:28:32.977Z,2.33
2018-04-14T06:31:01.922Z,2.80
2018-04-14T06:33:30.093Z,2.87
2018-04-14T06:35:58.266Z,3.50
2018-04-14T06:38:26.444Z,2.57
2018-04-14T06:40:54.617Z,2.60
2018-04-14T06:43:23.125Z,2.70
2018-04-14T06:45:51.376Z,2.80
2018-04-14T06:48:19.558Z,2.80
2018-04-14T06:50:47.727Z,2.37
2018-04-14T06:53:15.916Z,2.73
2018-04-14T06:55:44.116Z,2.23
2018-04-14T06:58:12.293Z,2.30
2018-04-14T07:00:40.466Z,2.73
2018-04-14T07:03:08.652Z,2.87
2018-04-14T07:05:37.612Z,2.23
2018-04-14T07:08:05.817Z,2.97
2018-04-14T07:10:34.782Z,3.67
2018-04-14T07:13:02.974Z,2.50
2018-04-14T07:15:31.214Z,2.70
2018-04-14T07:17:59.386Z,2.90
2018-04-14T07:20:27.574Z,2.47
2018-04-14T07:22:55.749Z,2.80
2018-04-14T07:25:23.917Z,2.40
2018-04-14T07:27:52.101Z,2.93
2018-04-14T07:30:20.301Z,2.27
2018-04-14T07:32:48.497Z,2.40
2018-04-14T07:35:17.435Z,2.00
2018-04-14T07:37:45.621Z,2.10
2018-04-14T07:40:13.813Z,1.80
2018-04-14T07:42:41.984Z,1.60
2018-04-14T07:45:10.168Z,1.73
2018-04-14T07:47:38.374Z,1.73
2018-04-14T07:50:06.557Z,1.67
2018-04-14T07:52:34.728Z,1.50
2018-04-14T07:55:02.896Z,1.40
2018-04-14T07:57:31.074Z,1.60
2018-04-14T07:59:59.272Z,1.70
2018-04-14T08:02:27.486Z,1.50
2018-04-14T08:04:55.661Z,1.83
2018-04-14T08:07:23.842Z,1.50
2018-04-14T08:09:52.028Z,1.60
2018-04-14T08:12:20.977Z,1.47
2018-04-14T08:14:49.149Z,1.67
2018-04-14T08:17:18.114Z,1.37
2018-04-14T08:19:46.293Z,1.47
2018-04-14T08:22:14.479Z,1.30
2018-04-14T08:24:42.714Z,1.03
2018-04-14T08:27:10.974Z,1.60
2018-04-14T08:29:39.189Z,1.70
2018-04-14T08:32:07.371Z,1.60
2018-04-14T08:34:35.547Z,1.43
2018-04-14T08:37:03.732Z,1.43
2018-04-14T08:39:31.919Z,1.47
2018-04-14T08:42:00.090Z,1.37
2018-04-14T08:44:28.372Z,1.90
2018-04-14T08:46:56.635Z,1.63
2018-04-14T08:49:24.802Z,1.70
2018-04-14T08:51:52.982Z,1.43
2018-04-14T08:54:21.164Z,1.17
2018-04-14T08:56:49.348Z,1.80
2018-04-14T08:59:17.521Z,1.50
2018-04-14T09:01:45.703Z,1.40
2018-04-14T09:04:13.896Z,1.17
2018-04-14T09:06:42.078Z,1.10
2018-04-14T09:09:10.304Z,1.17
2018-04-14T09:11:38.461Z,1.70
2018-04-14T09:14:06.633Z,1.10
2018-04-14T09:16:34.818Z,1.27
2018-04-14T09:19:03.003Z,1.40
2018-04-14T09:21:31.194Z,0.90
2018-04-14T09:23:59.370Z,0.70
2018-04-14T09:26:27.545Z,1.30
2018-04-14T09:28:55.745Z,1.80
2018-04-14T09:31:23.927Z,1.53
2018-04-14T09:33:52.881Z,1.40
2018-04-14T09:36:21.057Z,1.17
2018-04-14T09:38:49.241Z,1.37
2018-04-14T09:41:17.454Z,0.90
2018-04-14T09:43:46.405Z,0.80
2018-04-14T09:46:14.594Z,1.40
2018-04-14T09:48:42.768Z,1.13
2018-04-14T09:51:10.991Z,1.10
2018-04-14T09:53:39.167Z,1.27
2018-04-14T09:56:07.342Z,1.10
2018-04-14T09:58:35.542Z,1.00
2018-04-14T10:01:09.265Z,1.23
2018-04-14T10:03:37.461Z,1.00
2018-04-14T10:06:14.450Z,1.07
2018-04-14T10:08:43.503Z,1.17
2018-04-14T10:11:11.668Z,1.00
2018-04-14T10:13:39.920Z,1.17
2018-04-14T10:16:08.092Z,0.90
2018-04-14T10:18:36.296Z,0.90
2018-04-14T10:21:04.508Z,1.07
2018-04-14T10:23:32.685Z,0.90
2018-04-14T10:26:00.853Z,1.10
2018-04-14T10:28:29.029Z,1.10
2018-04-14T10:30:57.273Z,1.00
2018-04-14T10:33:25.478Z,1.00
2018-04-14T10:35:53.676Z,0.87
2018-04-14T10:38:22.615Z,1.13
2018-04-14T10:40:50.797Z,1.20
2018-04-14T10:43:18.973Z,1.10
2018-04-14T10:45:47.140Z,1.10
2018-04-14T10:48:15.324Z,1.17
2018-04-14T10:50:43.513Z,1.13
2018-04-14T10:53:11.702Z,0.97
2018-04-14T10:55:39.883Z,1.10
2018-04-14T10:58:08.059Z,1.10
2018-04-14T11:00:36.231Z,0.80
2018-04-14T11:03:05.174Z,0.90
2018-04-14T11:05:33.416Z,0.90
2018-04-14T11:08:02.369Z,0.97
2018-04-14T11:10:30.567Z,1.23
2018-04-14T11:12:58.753Z,1.13
2018-04-14T11:15:27.697Z,1.43
2018-04-14T11:17:55.874Z,1.17
2018-04-14T11:20:24.056Z,1.00
2018-04-14T11:22:52.258Z,0.97
2018-04-14T11:25:21.220Z,1.17
2018-04-14T11:27:49.396Z,1.20
2018-04-14T11:30:17.581Z,1.20
2018-04-14T11:32:45.753Z,1.20
2018-04-14T11:35:13.939Z,1.07
2018-04-14T11:37:42.110Z,1.00
2018-04-14T11:40:10.323Z,1.10
2018-04-14T11:42:39.260Z,1.30
2018-04-14T11:45:07.437Z,1.20
2018-04-14T11:47:35.635Z,1.10
2018-04-14T11:50:03.805Z,1.27
2018-04-14T11:52:31.982Z,1.10
2018-04-14T11:55:00.167Z,1.30
2018-04-14T11:57:29.126Z,1.40
2018-04-14T11:59:57.304Z,1.40
2018-04-14T12:02:25.537Z,1.00
2018-04-14T12:04:53.709Z,1.40
2018-04-14T12:07:21.913Z,1.70
2018-04-14T12:09:50.109Z,1.17
2018-04-14T12:12:18.324Z,1.30
2018-04-14T12:14:47.268Z,1.63
2018-04-14T12:17:15.439Z,1.17
2018-04-14T12:19:43.621Z,1.20
2018-04-14T12:22:11.789Z,1.13
2018-04-14T12:24:39.969Z,0.90
2018-04-14T12:27:08.146Z,1.03
2018-04-14T12:29:36.331Z,1.20
2018-04-14T12:32:04.522Z,1.20
2018-04-14T12:34:33.529Z,1.10
2018-04-14T12:37:01.676Z,1.27
2018-04-14T12:39:29.862Z,1.40
2018-04-14T12:41:58.056Z,1.40
2018-04-14T12:44:26.995Z,1.50
2018-04-14T12:46:55.165Z,2.60
2018-04-14T12:49:23.345Z,5.87
2018-04-14T12:51:51.517Z,1.23
2018-04-14T12:54:19.682Z,0.90
2018-04-14T12:56:48.205Z,1.07
2018-04-14T12:59:16.389Z,1.47
2018-04-14T13:01:44.622Z,2.00
2018-04-14T13:04:12.796Z,1.40
2018-04-14T13:06:40.972Z,1.80
2018-04-14T13:09:09.191Z,1.10
2018-04-14T13:11:37.365Z,1.47
2018-04-14T13:14:06.345Z,1.30
2018-04-14T13:16:34.546Z,1.40
2018-04-14T13:19:03.554Z,1.50
2018-04-14T13:21:31.721Z,1.77
2018-04-14T13:24:00.672Z,1.60
2018-04-14T13:26:28.844Z,1.40
2018-04-14T13:28:57.785Z,3.97
2018-04-14T13:31:25.966Z,2.90
2018-04-14T13:33:54.130Z,1.30
2018-04-14T13:36:23.073Z,1.70
2018-04-14T13:38:51.265Z,2.07
2018-04-14T13:41:19.466Z,1.30
2018-04-14T13:43:48.406Z,1.50
2018-04-14T13:46:16.613Z,1.50
2018-04-14T13:48:44.796Z,1.47
2018-04-14T13:51:13.753Z,1.60
2018-04-14T13:53:41.921Z,1.43
2018-04-14T13:56:10.086Z,1.10
2018-04-14T13:58:38.264Z,1.20
2018-04-14T14:01:06.436Z,1.83
2018-04-14T14:03:34.613Z,1.73
2018-04-14T14:06:02.798Z,1.50
2018-04-14T14:08:30.963Z,1.50
2018-04-14T14:10:59.125Z,1.07
2018-04-14T14:13:27.370Z,1.40
2018-04-14T14:15:56.317Z,1.30
2018-04-14T14:18:24.515Z,1.37
2018-04-14T14:20:52.681Z,1.57
2018-04-14T14:23:20.846Z,1.80
2018-04-14T14:25:49.018Z,1.23
2018-04-14T14:28:17.197Z,3.40
2018-04-14T14:30:45.393Z,1.90
2018-04-14T14:33:13.562Z,1.87
2018-04-14T14:35:41.769Z,1.30
2018-04-14T14:38:09.979Z,1.37
2018-04-14T14:40:38.119Z,2.20
2018-04-14T14:43:06.312Z,1.80
2018-04-14T14:45:34.479Z,1.30
2018-04-14T14:48:02.652Z,1.20
2018-04-14T14:50:30.827Z,2.00
2018-04-14T14:52:58.996Z,2.30
2018-04-14T14:55:27.227Z,4.30
2018-04-14T14:57:55.398Z,2.20
2018-04-14T15:00:23.577Z,1.80
2018-04-14T15:02:51.757Z,2.07
2018-04-14T15:05:19.949Z,1.60
2018-04-14T15:07:48.119Z,2.07
2018-04-14T15:10:16.279Z,1.90
2018-04-14T15:12:44.463Z,3.23
2018-04-14T15:15:12.634Z,1.50
2018-04-14T15:17:40.800Z,2.17
2018-04-14T15:20:08.975Z,5.90
2018-04-14T15:22:37.149Z,4.53
2018-04-14T15:25:05.338Z,3.80
2018-04-14T15:27:33.515Z,3.43
2018-04-14T15:30:01.735Z,3.00
2018-04-14T15:32:29.931Z,3.97
2018-04-14T15:34:58.863Z,4.00
2018-04-14T15:37:27.037Z,3.97
2018-04-14T15:39:55.214Z,2.73
2018-04-14T15:42:23.401Z,2.23
2018-04-14T15:44:51.583Z,3.80
2018-04-14T15:47:19.753Z,5.50
2018-04-14T15:49:47.927Z,2.63
2018-04-14T15:52:16.115Z,4.23
2018-04-14T15:54:44.294Z,3.10
2018-04-14T15:57:12.524Z,7.67
2018-04-14T15:59:40.705Z,3.70
2018-04-14T16:02:08.894Z,3.83
2018-04-14T16:04:37.075Z,4.40
2018-04-14T16:07:05.249Z,3.37
2018-04-14T16:09:33.493Z,3.60
2018-04-14T16:12:01.690Z,3.80
2018-04-14T16:14:29.862Z,2.20
2018-04-14T16:16:58.044Z,1.90
2018-04-14T16:19:26.231Z,1.30
2018-04-14T16:21:54.437Z,1.60
2018-04-14T16:24:23.397Z,1.30
2018-04-14T16:26:51.574Z,1.77
2018-04-14T16:29:19.740Z,2.03
2018-04-14T16:31:48.678Z,1.80
2018-04-14T16:34:17.613Z,2.20
2018-04-14T16:36:45.791Z,2.33
2018-04-14T16:39:13.964Z,4.10
2018-04-14T16:41:42.146Z,1.70
2018-04-14T16:44:10.327Z,1.60
2018-04-14T16:46:38.509Z,1.73
2018-04-14T16:49:06.686Z,1.40
2018-04-14T16:51:34.845Z,1.87
2018-04-14T16:54:03.053Z,1.70
2018-04-14T16:56:31.217Z,1.30
2018-04-14T16:58:59.395Z,2.33
2018-04-14T17:01:27.575Z,2.00
2018-04-14T17:03:56.514Z,2.23
2018-04-14T17:06:24.682Z,2.07
2018-04-14T17:08:52.864Z,2.50
2018-04-14T17:11:21.054Z,2.10
2018-04-14T17:13:49.240Z,3.77
2018-04-14T17:16:17.401Z,2.27
2018-04-14T17:18:45.572Z,3.03
2018-04-14T17:21:13.778Z,2.40
2018-04-14T17:23:41.951Z,2.00
2018-04-14T17:26:10.116Z,2.30
2018-04-14T17:28:38.278Z,2.17
2018-04-14T17:31:06.449Z,1.80
2018-04-14T17:33:34.620Z,2.70
2018-04-14T17:36:02.791Z,2.10
2018-04-14T17:38:30.957Z,3.00
2018-04-14T17:40:59.133Z,4.13
2018-04-14T17:43:27.310Z,4.10
2018-04-14T17:45:55.481Z,3.77
2018-04-14T17:48:23.677Z,2.77
2018-04-14T17:50:51.865Z,3.03
2018-04-14T17:53:20.044Z,2.40
2018-04-14T17:55:48.227Z,2.73
2018-04-14T17:58:16.397Z,2.90
2018-04-14T18:00:44.590Z,2.40
2018-04-14T18:03:13.539Z,2.10
2018-04-14T18:05:41.711Z,1.90
2018-04-14T18:08:09.881Z,2.27
2018-04-14T18:10:38.101Z,2.67
2018-04-14T18:13:07.037Z,3.17
2018-04-14T18:15:35.241Z,3.07
2018-04-14T18:18:03.413Z,3.70
2018-04-14T18:20:31.581Z,3.57
2018-04-14T18:22:59.786Z,3.60
2018-04-14T18:25:27.952Z,3.27
2018-04-14T18:27:56.131Z,3.20
2018-04-14T18:30:24.306Z,3.37
2018-04-14T18:32:52.490Z,3.97
2018-04-14T18:35:21.460Z,3.30
2018-04-14T18:37:49.628Z,3.23
2018-04-14T18:40:17.806Z,3.50
2018-04-14T18:42:45.983Z,3.60
2018-04-14T18:45:14.156Z,4.00
2018-04-14T18:47:42.358Z,4.20
2018-04-14T18:50:11.352Z,4.60
2018-04-14T18:52:39.480Z,3.90
2018-04-14T18:55:07.692Z,3.83
2018-04-14T18:57:35.862Z,4.80
2018-04-14T19:00:04.103Z,4.77
2018-04-14T19:02:32.274Z,10.53
2018-04-14T19:05:00.439Z,5.90
2018-04-14T19:07:28.613Z,10.80
2018-04-14T19:09:56.772Z,5.40
2018-04-14T19:12:24.961Z,4.80
2018-04-14T19:14:53.141Z,4.63
2018-04-14T19:17:21.316Z,4.77
2018-04-14T19:19:49.501Z,8.00
2018-04-14T19:22:17.665Z,6.50
2018-04-14T19:24:45.940Z,7.30
2018-04-14T19:27:14.159Z,6.07
2018-04-14T19:29:42.340Z,4.60
2018-04-14T19:32:11.293Z,4.10
2018-04-14T19:34:39.469Z,3.93
2018-04-14T19:37:07.655Z,4.30
2018-04-14T19:39:35.852Z,4.83
2018-04-14T19:42:04.026Z,3.60
2018-04-14T19:44:32.198Z,3.70
2018-04-14T19:47:00.385Z,4.33
2018-04-14T19:49:29.323Z,2.80
2018-04-14T19:51:57.494Z,2.90
2018-04-14T19:54:25.726Z,3.13
2018-04-14T19:56:53.868Z,2.97
2018-04-14T19:59:22.044Z,3.67
2018-04-14T20:01:50.235Z,3.40
2018-04-14T20:04:18.401Z,3.87
2018-04-14T20:06:46.608Z,4.30
2018-04-14T20:09:15.545Z,3.97
2018-04-14T20:11:43.722Z,3.80
2018-04-14T20:14:11.917Z,10.97
2018-04-14T20:16:40.087Z,7.70
2018-04-14T20:19:08.282Z,5.17
2018-04-14T20:21:36.463Z,5.90
2018-04-14T20:24:04.633Z,4.50
2018-04-14T20:26:32.810Z,4.07
2018-04-14T20:29:00.979Z,3.93
2018-04-14T20:31:29.155Z,7.60
2018-04-14T20:33:57.322Z,5.73
2018-04-14T20:36:25.492Z,4.33
2018-04-14T20:38:53.664Z,4.20
2018-04-14T20:41:21.833Z,3.47
2018-04-14T20:43:50.012Z,3.87
2018-04-14T20:46:18.183Z,3.27
2018-04-14T20:48:46.353Z,3.60
2018-04-14T20:51:14.526Z,3.50
2018-04-14T20:53:42.698Z,3.20
2018-04-14T20:56:10.885Z,3.17
2018-04-14T20:58:39.096Z,3.57
2018-04-14T21:01:08.028Z,3.30
2018-04-14T21:03:36.205Z,3.23
2018-04-14T21:06:04.395Z,3.30
2018-04-14T21:08:32.658Z,3.40
2018-04-14T21:11:00.833Z,4.23
2018-04-14T21:13:29.004Z,3.37
2018-04-14T21:15:57.181Z,3.27
2018-04-14T21:18:25.364Z,3.73
2018-04-14T21:20:53.546Z,3.53
2018-04-14T21:23:21.714Z,3.30
2018-04-14T21:25:49.886Z,3.50
2018-04-14T21:28:18.075Z,3.60
2018-04-14T21:30:46.237Z,3.30
2018-04-14T21:33:14.406Z,3.20
2018-04-14T21:35:42.585Z,3.50
2018-04-14T21:38:10.767Z,4.30
2018-04-14T21:40:38.956Z,4.07
2018-04-14T21:43:07.126Z,4.03
2018-04-14T21:45:35.294Z,4.10
2018-04-14T21:48:03.467Z,3.80
2018-04-14T21:50:31.656Z,3.37
2018-04-14T21:52:59.822Z,3.87
2018-04-14T21:55:28.005Z,3.60
2018-04-14T21:57:56.252Z,3.50
2018-04-14T22:00:24.424Z,3.17
2018-04-14T22:02:52.589Z,3.43
2018-04-14T22:05:20.773Z,3.37
2018-04-14T22:07:48.959Z,3.50
2018-04-14T22:10:17.121Z,3.40
2018-04-14T22:12:45.372Z,2.70
2018-04-14T22:15:13.493Z,3.27
2018-04-14T22:17:41.682Z,3.30
2018-04-14T22:20:09.856Z,5.07
2018-04-14T22:22:38.061Z,3.53
2018-04-14T22:25:06.274Z,3.10
2018-04-14T22:27:34.449Z,3.53
2018-04-14T22:30:02.630Z,3.60
2018-04-14T22:32:30.792Z,3.30
2018-04-14T22:34:58.965Z,3.47
2018-04-14T22:37:27.133Z,3.10
2018-04-14T22:39:55.308Z,3.90
2018-04-14T22:42:23.494Z,3.57
2018-04-14T22:44:51.693Z,3.37
2018-04-14T22:47:19.862Z,3.20
2018-04-14T22:49:48.034Z,3.20
2018-04-14T22:52:16.217Z,3.43
2018-04-14T22:54:44.392Z,3.60
2018-04-14T22:57:12.564Z,3.27
2018-04-14T22:59:40.741Z,4.00
2018-04-14T23:02:08.923Z,3.23
2018-04-14T23:04:37.098Z,3.20
2018-04-14T23:07:05.264Z,3.13
2018-04-14T23:09:33.445Z,3.33
2018-04-14T23:12:01.619Z,3.47
2018-04-14T23:14:29.795Z,3.13
2018-04-14T23:16:57.969Z,3.10
2018-04-14T23:19:26.137Z,3.00
2018-04-14T23:21:54.310Z,3.43
2018-04-14T23:24:22.481Z,3.10
2018-04-14T23:26:50.638Z,2.90
2018-04-14T23:29:19.625Z,3.37
2018-04-14T23:31:47.788Z,3.40
2018-04-14T23:34:15.961Z,3.30
2018-04-14T23:36:44.125Z,3.70
2018-04-14T23:39:12.285Z,3.83
2018-04-14T23:41:41.246Z,3.27
2018-04-14T23:44:09.412Z,3.67
2018-04-14T23:46:37.605Z,3.13
2018-04-14T23:49:06.624Z,4.30
2018-04-14T23:51:34.785Z,3.30
2018-04-14T23:54:03.743Z,3.80
2018-04-14T23:56:31.920Z,3.07
2018-04-14T23:59:00.082Z,2.80
